createdAt,value
2023-02-24T00:02:05.098Z,85.80
2023-02-24T00:04:37.775Z,82.40
2023-02-24T00:07:03.900Z,80.10
2023-02-24T00:09:31.099Z,77.60
2023-02-24T00:12:03.279Z,83.60
2023-02-24T00:14:32.491Z,91.40
2023-02-24T00:16:58.937Z,86.80
2023-02-24T00:19:28.405Z,84.80
2023-02-24T00:21:54.702Z,85.40
2023-02-24T00:24:21.627Z,83.20
2023-02-24T00:26:53.717Z,83.60
2023-02-24T00:29:23.463Z,83.00
2023-02-24T00:31:59.498Z,91.00
2023-02-24T00:34:30.610Z,84.30
2023-02-24T00:36:57.713Z,82.50
2023-02-24T00:39:27.836Z,83.40
2023-02-24T00:41:57.502Z,84.20
2023-02-24T00:44:23.689Z,84.40
2023-02-24T00:46:50.913Z,80.40
2023-02-24T00:49:18.751Z,83.70
2023-02-24T00:51:48.685Z,85.70
2023-02-24T00:54:16.783Z,87.00
2023-02-24T00:56:44.548Z,87.20
2023-02-24T00:59:12.708Z,79.70
2023-02-24T01:01:39.462Z,79.10
2023-02-24T01:04:10.734Z,78.20
2023-02-24T01:06:45.311Z,80.80
2023-02-24T01:09:14.052Z,79.20
2023-02-24T01:11:59.749Z,84.60
2023-02-24T01:14:31.157Z,82.20
2023-02-24T01:16:57.758Z,88.00
2023-02-24T01:19:30.796Z,79.30
2023-02-24T01:22:07.283Z,80.80
2023-02-24T01:24:36.600Z,85.20
2023-02-24T01:27:02.728Z,84.60
2023-02-24T01:29:28.878Z,79.60
2023-02-24T01:31:58.462Z,86.40
2023-02-24T01:34:26.555Z,76.80
2023-02-24T01:36:53.245Z,85.30
2023-02-24T01:39:20.082Z,85.30
2023-02-24T01:41:53.283Z,86.80
2023-02-24T01:44:24.300Z,89.30
2023-02-24T01:46:52.301Z,81.20
2023-02-24T01:49:28.871Z,83.40
2023-02-24T01:52:08.502Z,83.60
2023-02-24T01:54:40.951Z,72.40
2023-02-24T01:57:07.713Z,72.70
2023-02-24T01:59:37.123Z,73.10
2023-02-24T02:02:07.093Z,78.80
2023-02-24T02:04:42.108Z,71.60
2023-02-24T02:07:10.649Z,68.30
2023-02-24T02:09:38.156Z,75.60
2023-02-24T02:12:04.199Z,77.40
2023-02-24T02:14:31.306Z,69.80
2023-02-24T02:17:20.774Z,78.20
2023-02-24T02:20:16.066Z,71.40
2023-02-24T02:22:58.596Z,73.00
2023-02-24T02:25:24.873Z,73.20
2023-02-24T02:28:15.777Z,68.60
2023-02-24T02:31:01.274Z,76.20
2023-02-24T02:33:49.172Z,79.40
2023-02-24T02:36:39.640Z,74.60
2023-02-24T02:39:32.116Z,77.90
2023-02-24T02:42:24.991Z,70.70
2023-02-24T02:47:49.906Z,74.70
2023-02-24T02:50:35.142Z,75.00
2023-02-24T02:53:11.615Z,74.90
2023-02-24T02:55:49.493Z,73.60
2023-02-24T02:58:22.853Z,73.40
2023-02-24T03:01:01.990Z,69.50
2023-02-24T03:03:34.417Z,72.80
2023-02-24T03:06:09.825Z,75.50
2023-02-24T03:08:39.659Z,72.90
2023-02-24T03:11:11.416Z,77.60
2023-02-24T03:13:41.131Z,76.40
2023-02-24T03:16:10.211Z,80.00
2023-02-24T03:18:44.126Z,90.90
2023-02-24T03:21:22.372Z,83.30
2023-02-24T03:23:50.778Z,81.40
2023-02-24T03:26:27.556Z,77.80
2023-02-24T03:29:04.585Z,86.60
2023-02-24T03:31:34.754Z,80.50
2023-02-24T03:34:10.960Z,83.00
2023-02-24T03:36:37.308Z,79.80
2023-02-24T03:39:05.230Z,88.50
2023-02-24T03:41:40.462Z,89.90
2023-02-24T03:44:10.430Z,87.10
2023-02-24T03:46:38.703Z,87.60
2023-02-24T03:49:16.217Z,95.70
2023-02-24T03:52:09.078Z,91.20
2023-02-24T03:54:42.247Z,97.00
2023-02-24T03:57:33.994Z,94.50
2023-02-24T04:00:25.449Z,90.00
2023-02-24T04:03:33.521Z,96.50
2023-02-24T04:06:18.347Z,90.70
2023-02-24T04:11:24.488Z,90.80
2023-02-24T04:13:58.679Z,84.20
2023-02-24T04:16:35.699Z,88.10
2023-02-24T04:19:13.332Z,86.40
2023-02-24T04:21:42.670Z,78.70
2023-02-24T04:24:15.278Z,92.50
2023-02-24T04:26:44.915Z,85.40
2023-02-24T04:29:16.958Z,82.10
2023-02-24T04:31:47.516Z,82.30
2023-02-24T04:34:19.232Z,88.80
2023-02-24T04:36:48.852Z,87.30
2023-02-24T04:39:20.045Z,89.00
2023-02-24T04:41:49.606Z,84.90
2023-02-24T04:44:20.401Z,85.10
2023-02-24T04:46:47.331Z,83.10
2023-02-24T04:49:13.367Z,84.80
2023-02-24T04:51:42.709Z,87.10
2023-02-24T04:54:16.789Z,86.90
2023-02-24T04:56:44.426Z,91.30
2023-02-24T04:59:11.353Z,90.80
2023-02-24T05:01:41.542Z,92.90
2023-02-24T05:04:08.325Z,94.80
2023-02-24T05:06:34.629Z,85.10
2023-02-24T05:09:01.311Z,94.50
2023-02-24T05:11:34.179Z,94.40
2023-02-24T05:14:00.402Z,88.50
2023-02-24T05:16:28.193Z,85.70
2023-02-24T05:19:14.771Z,85.50
2023-02-24T05:26:36.330Z,79.30
2023-02-24T05:29:04.901Z,86.60
2023-02-24T05:31:31.166Z,88.80
2023-02-24T05:34:02.476Z,89.70
2023-02-24T05:36:35.235Z,84.70
2023-02-24T05:39:06.707Z,86.60
2023-02-24T05:41:35.565Z,86.50
2023-02-24T05:44:07.710Z,85.10
2023-02-24T05:46:37.098Z,85.70
2023-02-24T05:49:13.485Z,85.90
2023-02-24T05:51:42.732Z,91.10
2023-02-24T05:54:12.385Z,82.40
2023-02-24T05:56:43.034Z,95.80
2023-02-24T05:59:10.544Z,89.90
2023-02-24T06:01:40.712Z,83.30
2023-02-24T06:04:08.095Z,86.50
2023-02-24T06:06:41.688Z,82.40
2023-02-24T06:09:11.919Z,87.40
2023-02-24T06:11:41.950Z,93.20
2023-02-24T06:14:10.136Z,89.00
2023-02-24T06:16:39.306Z,85.10
2023-02-24T06:19:07.076Z,87.20
2023-02-24T06:21:40.518Z,85.40
2023-02-24T06:24:13.740Z,67.20
2023-02-24T06:26:42.700Z,77.00
2023-02-24T06:29:15.978Z,81.30
2023-02-24T06:31:43.333Z,74.20
2023-02-24T06:36:37.503Z,72.70
2023-02-24T06:41:34.617Z,74.70
2023-02-24T06:44:00.507Z,77.30
2023-02-24T06:46:26.552Z,77.80
2023-02-24T06:48:52.503Z,79.10
2023-02-24T06:51:18.763Z,84.20
2023-02-24T06:53:44.947Z,82.50
2023-02-24T06:56:17.386Z,87.60
2023-02-24T06:58:45.112Z,85.30
2023-02-24T07:01:16.189Z,84.90
2023-02-24T07:04:01.294Z,89.30
2023-02-24T07:06:28.766Z,85.50
2023-02-24T07:11:23.396Z,90.70
2023-02-24T07:13:49.971Z,89.60
2023-02-24T07:16:18.134Z,86.10
2023-02-24T07:18:47.714Z,91.60
2023-02-24T07:21:16.291Z,78.80
2023-02-24T07:23:58.583Z,84.50
2023-02-24T07:26:26.993Z,85.30
2023-02-24T07:28:57.322Z,80.10
2023-02-24T07:31:25.371Z,74.00
2023-02-24T07:34:01.333Z,77.30
2023-02-24T07:36:38.067Z,75.20
2023-02-24T07:39:08.633Z,78.80
2023-02-24T07:41:36.372Z,81.90
2023-02-24T07:44:02.710Z,74.60
2023-02-24T07:46:29.480Z,76.20
2023-02-24T07:48:58.495Z,77.00
2023-02-24T07:51:26.953Z,80.10
2023-02-24T07:53:58.217Z,82.70
2023-02-24T07:56:26.633Z,76.70
2023-02-24T07:59:00.117Z,78.60
2023-02-24T08:01:38.121Z,79.80
2023-02-24T08:04:11.938Z,83.70
2023-02-24T08:06:44.520Z,84.20
2023-02-24T08:09:18.302Z,69.40
2023-02-24T08:11:52.522Z,85.20
2023-02-24T08:14:23.366Z,82.90
2023-02-24T08:16:52.298Z,79.40
2023-02-24T08:19:20.218Z,88.20
2023-02-24T08:21:49.771Z,76.60
2023-02-24T08:24:25.216Z,84.30
2023-02-24T08:27:05.697Z,84.90
2023-02-24T08:29:57.365Z,84.40
2023-02-24T08:32:32.851Z,88.00
2023-02-24T08:35:17.429Z,87.80
2023-02-24T08:38:43.893Z,79.80
2023-02-24T08:41:18.923Z,79.60
2023-02-24T08:43:48.350Z,87.80
2023-02-24T08:46:18.765Z,83.70
2023-02-24T08:48:54.765Z,87.20
2023-02-24T08:51:29.894Z,84.10
2023-02-24T08:54:01.763Z,85.00
2023-02-24T08:56:34.001Z,84.40
2023-02-24T08:59:06.285Z,85.30
2023-02-24T09:01:36.052Z,83.20
2023-02-24T09:04:06.375Z,85.00
2023-02-24T09:06:45.296Z,81.90
2023-02-24T09:09:22.293Z,100.10
2023-02-24T09:11:55.048Z,93.50
2023-02-24T09:14:28.483Z,89.50
2023-02-24T09:17:10.427Z,86.10
2023-02-24T09:19:51.176Z,84.00
2023-02-24T09:22:32.848Z,88.30
2023-02-24T09:25:23.211Z,85.40
2023-02-24T09:28:07.213Z,85.80
2023-02-24T09:30:38.217Z,85.50
2023-02-24T09:33:16.901Z,81.10
2023-02-24T09:35:50.830Z,77.80
2023-02-24T09:38:41.632Z,81.50
2023-02-24T09:41:30.944Z,84.30
2023-02-24T09:44:19.089Z,87.80
2023-02-24T09:46:55.281Z,93.00
2023-02-24T09:49:39.163Z,85.10
2023-02-24T09:52:16.694Z,81.90
2023-02-24T09:55:23.296Z,87.30
2023-02-24T09:58:17.420Z,83.70
2023-02-24T10:01:20.577Z,85.90
2023-02-24T10:04:21.054Z,87.70
2023-02-24T10:07:03.737Z,85.30
2023-02-24T10:09:34.652Z,86.70
2023-02-24T10:12:16.556Z,91.00
2023-02-24T10:14:51.873Z,89.60
2023-02-24T10:17:24.202Z,84.90
2023-02-24T10:20:00.484Z,93.90
2023-02-24T10:22:49.761Z,73.50
2023-02-24T10:25:22.677Z,86.90
2023-02-24T10:28:11.683Z,87.00
2023-02-24T10:30:47.562Z,84.50
2023-02-24T10:33:26.802Z,84.80
2023-02-24T10:36:08.481Z,83.30
2023-02-24T10:38:36.093Z,81.40
2023-02-24T10:41:05.501Z,85.40
2023-02-24T10:43:41.576Z,76.70
2023-02-24T10:46:35.113Z,76.40
2023-02-24T10:49:11.081Z,79.20
2023-02-24T10:51:42.278Z,75.30
2023-02-24T10:54:33.927Z,80.30
2023-02-24T10:57:17.909Z,64.80
2023-02-24T11:00:17.710Z,77.60
2023-02-24T11:02:56.955Z,78.70
2023-02-24T11:05:37.749Z,75.90
2023-02-24T11:08:32.638Z,80.90
2023-02-24T11:11:07.232Z,72.00
2023-02-24T11:13:54.289Z,74.00
2023-02-24T11:16:39.220Z,74.70
2023-02-24T11:19:06.197Z,72.70
2023-02-24T11:21:32.713Z,64.30
2023-02-24T11:24:01.941Z,85.90
2023-02-24T11:26:37.576Z,75.10
2023-02-24T11:29:29.884Z,70.60
2023-02-24T11:32:32.532Z,71.40
2023-02-24T11:35:11.699Z,77.30
2023-02-24T11:37:43.391Z,77.30
2023-02-24T11:40:22.514Z,70.10
2023-02-24T11:43:04.662Z,74.30
2023-02-24T11:45:39.903Z,61.40
2023-02-24T11:48:15.256Z,68.10
2023-02-24T11:50:50.060Z,67.50
2023-02-24T11:54:02.619Z,65.00
2023-02-24T11:56:45.754Z,64.20
2023-02-24T11:59:17.928Z,73.80
2023-02-24T12:02:13.578Z,70.60
2023-02-24T12:04:57.874Z,66.70
2023-02-24T12:07:40.604Z,63.90
2023-02-24T12:10:17.763Z,68.20
2023-02-24T12:12:50.554Z,63.30
2023-02-24T12:15:38.271Z,63.90
2023-02-24T12:18:26.917Z,53.10
2023-02-24T12:21:10.874Z,68.00
2023-02-24T12:23:40.130Z,67.50
2023-02-24T12:26:17.611Z,65.00
2023-02-24T12:29:11.564Z,61.20
2023-02-24T12:32:00.989Z,54.20
2023-02-24T12:34:45.403Z,56.20
2023-02-24T12:37:23.355Z,58.80
2023-02-24T12:40:01.153Z,52.10
2023-02-24T12:42:48.254Z,54.30
2023-02-24T12:45:14.234Z,59.30
2023-02-24T12:48:07.934Z,56.10
2023-02-24T12:50:54.030Z,51.50
2023-02-24T12:53:42.901Z,55.60
2023-02-24T12:56:17.190Z,56.80
2023-02-24T12:58:47.761Z,52.10
2023-02-24T13:01:36.185Z,53.40
2023-02-24T13:04:19.126Z,51.40
2023-02-24T13:07:10.189Z,48.50
2023-02-24T13:10:05.994Z,51.90
2023-02-24T13:12:50.443Z,54.60
2023-02-24T13:15:24.976Z,49.40
2023-02-24T13:17:53.164Z,53.30
2023-02-24T13:20:35.763Z,50.30
2023-02-24T13:23:04.272Z,48.00
2023-02-24T13:25:36.443Z,46.70
2023-02-24T13:28:21.555Z,51.40
2023-02-24T13:30:58.285Z,51.10
2023-02-24T13:33:29.435Z,43.10
2023-02-24T13:36:12.477Z,47.20
2023-02-24T13:38:42.306Z,51.40
2023-02-24T13:41:26.468Z,46.60
2023-02-24T13:44:20.094Z,53.00
2023-02-24T13:46:55.121Z,46.60
2023-02-24T13:49:36.076Z,49.50
2023-02-24T13:52:18.792Z,47.00
2023-02-24T13:55:24.616Z,42.40
2023-02-24T13:58:09.104Z,52.40
2023-02-24T14:01:00.426Z,39.90
2023-02-24T14:03:28.091Z,47.10
2023-02-24T14:05:54.742Z,45.70
2023-02-24T14:08:40.349Z,42.40
2023-02-24T14:11:09.471Z,48.70
2023-02-24T14:13:36.218Z,55.10
2023-02-24T14:16:11.323Z,46.90
2023-02-24T14:18:38.330Z,46.00
2023-02-24T14:21:04.397Z,47.30
2023-02-24T14:23:33.282Z,52.70
2023-02-24T14:26:01.057Z,44.20
2023-02-24T14:28:32.882Z,47.70
2023-02-24T14:31:05.465Z,46.40
2023-02-24T14:33:34.999Z,45.80
2023-02-24T14:36:06.598Z,47.20
2023-02-24T14:38:39.339Z,45.90
2023-02-24T14:41:16.578Z,54.70
2023-02-24T14:43:42.746Z,44.10
2023-02-24T14:46:08.892Z,48.80
2023-02-24T14:48:35.478Z,52.90
2023-02-24T14:51:08.829Z,36.60
2023-02-24T14:53:42.734Z,45.30
2023-02-24T14:56:12.034Z,42.60
2023-02-24T14:58:50.594Z,39.60
2023-02-24T15:01:37.737Z,43.60
2023-02-24T15:04:41.669Z,38.50
2023-02-24T15:07:18.447Z,41.80
2023-02-24T15:09:47.075Z,36.40
2023-02-24T15:12:28.240Z,36.90
2023-02-24T15:15:00.438Z,40.70
2023-02-24T15:17:27.357Z,47.50
2023-02-24T15:19:56.213Z,43.60
2023-02-24T15:22:22.147Z,42.70
2023-02-24T15:24:48.937Z,38.40
2023-02-24T15:27:14.970Z,39.50
2023-02-24T15:29:43.262Z,44.00
2023-02-24T15:32:19.126Z,35.00
2023-02-24T15:34:47.234Z,42.10
2023-02-24T15:37:41.241Z,44.60
2023-02-24T15:40:28.184Z,44.20
2023-02-24T15:42:59.841Z,41.40
2023-02-24T15:45:32.163Z,41.90
2023-02-24T15:48:03.448Z,39.80
2023-02-24T15:50:30.928Z,43.00
2023-02-24T15:53:00.061Z,45.20
2023-02-24T15:55:27.947Z,46.50
2023-02-24T15:58:02.610Z,44.70
2023-02-24T16:00:30.389Z,42.20
2023-02-24T16:02:57.225Z,43.20
2023-02-24T16:05:24.611Z,45.50
2023-02-24T16:07:50.674Z,48.90
2023-02-24T16:10:26.392Z,44.00
2023-02-24T16:13:00.194Z,46.70
2023-02-24T16:15:38.591Z,42.90
2023-02-24T16:18:11.607Z,45.00
2023-02-24T16:20:38.759Z,47.10
2023-02-24T16:23:05.107Z,52.60
2023-02-24T16:25:37.685Z,52.50
2023-02-24T16:28:04.090Z,45.20
2023-02-24T16:30:30.223Z,42.70
2023-02-24T16:33:00.373Z,43.50
2023-02-24T16:35:27.676Z,46.90
2023-02-24T16:37:53.737Z,45.10
2023-02-24T16:40:24.849Z,48.10
2023-02-24T16:42:52.020Z,49.90
2023-02-24T16:47:47.260Z,46.90
2023-02-24T16:50:20.234Z,50.40
2023-02-24T16:52:46.232Z,47.60
2023-02-24T16:55:14.120Z,50.10
2023-02-24T16:57:40.670Z,50.40
2023-02-24T17:00:07.545Z,54.30
2023-02-24T17:02:33.684Z,48.30
2023-02-24T17:04:59.548Z,47.60
2023-02-24T17:07:25.503Z,50.50
2023-02-24T17:09:51.451Z,50.10
2023-02-24T17:12:21.887Z,51.10
2023-02-24T17:14:47.988Z,53.10
2023-02-24T17:17:13.980Z,47.40
2023-02-24T17:19:39.922Z,52.80
2023-02-24T17:22:05.897Z,53.90
2023-02-24T17:24:31.854Z,53.50
2023-02-24T17:26:59.165Z,55.70
2023-02-24T17:31:51.244Z,50.20
2023-02-24T17:34:17.325Z,46.60
2023-02-24T17:36:43.263Z,53.70
2023-02-24T17:39:09.325Z,53.30
2023-02-24T17:41:35.292Z,57.60
2023-02-24T17:44:02.187Z,51.30
2023-02-24T17:46:29.662Z,55.60
2023-02-24T17:48:55.640Z,44.40
2023-02-24T17:51:22.507Z,58.40
2023-02-24T17:53:48.879Z,54.70
2023-02-24T17:56:14.821Z,54.40
2023-02-24T17:58:40.868Z,57.20
2023-02-24T18:01:07.080Z,58.30
2023-02-24T18:03:34.806Z,59.20
2023-02-24T18:06:04.960Z,66.00
2023-02-24T18:08:33.284Z,66.60
2023-02-24T18:11:00.347Z,63.50
2023-02-24T18:13:28.355Z,71.50
2023-02-24T18:15:54.623Z,69.40
2023-02-24T18:18:20.607Z,61.90
2023-02-24T18:20:46.824Z,69.30
2023-02-24T18:23:13.091Z,66.50
2023-02-24T18:25:39.339Z,63.10
2023-02-24T18:28:05.538Z,66.30
2023-02-24T18:30:31.993Z,61.90
2023-02-24T18:32:58.201Z,70.60
2023-02-24T18:35:24.461Z,57.20
2023-02-24T18:37:55.845Z,58.80
2023-02-24T18:40:23.522Z,64.20
2023-02-24T18:42:49.733Z,63.70
2023-02-24T18:45:15.784Z,61.30
2023-02-24T18:47:41.728Z,59.10
2023-02-24T18:50:08.299Z,56.10
2023-02-24T18:52:34.740Z,61.10
2023-02-24T18:55:00.689Z,51.20
2023-02-24T18:57:26.567Z,59.90
2023-02-24T18:59:52.548Z,53.40
2023-02-24T19:02:18.680Z,56.50
2023-02-24T19:04:45.223Z,53.50
2023-02-24T19:07:12.192Z,53.90
2023-02-24T19:09:39.707Z,62.10
2023-02-24T19:12:07.742Z,59.70
2023-02-24T19:14:33.708Z,59.50
2023-02-24T19:17:03.201Z,53.20
2023-02-24T19:19:29.207Z,55.50
2023-02-24T19:21:55.226Z,54.80
2023-02-24T19:24:21.476Z,63.60
2023-02-24T19:26:47.742Z,64.00
2023-02-24T19:29:13.876Z,61.00
2023-02-24T19:31:40.113Z,57.50
2023-02-24T19:34:10.063Z,60.70
2023-02-24T19:36:37.072Z,58.10
2023-02-24T19:39:04.496Z,62.10
2023-02-24T19:41:30.504Z,59.90
2023-02-24T19:43:56.515Z,67.80
2023-02-24T19:46:23.320Z,61.80
2023-02-24T19:48:49.632Z,60.90
2023-02-24T19:51:18.094Z,65.70
2023-02-24T19:53:44.554Z,66.10
2023-02-24T19:56:10.706Z,62.30
2023-02-24T19:58:37.117Z,56.80
2023-02-24T20:01:05.827Z,63.60
2023-02-24T20:03:31.814Z,56.50
2023-02-24T20:05:57.923Z,79.20
2023-02-24T20:08:23.779Z,61.30
2023-02-24T20:10:58.394Z,57.30
2023-02-24T20:13:24.427Z,61.80
2023-02-24T20:15:50.413Z,63.80
2023-02-24T20:18:16.294Z,58.90
2023-02-24T20:20:42.210Z,60.60
2023-02-24T20:23:08.093Z,56.50
2023-02-24T20:25:34.051Z,59.70
2023-02-24T20:28:00.858Z,55.80
2023-02-24T20:30:26.768Z,61.90
2023-02-24T20:32:53.248Z,61.90
2023-02-24T20:35:20.363Z,64.30
2023-02-24T20:37:47.050Z,55.30
2023-02-24T20:40:13.267Z,63.00
2023-02-24T20:42:39.201Z,60.20
2023-02-24T20:45:07.230Z,58.70
2023-02-24T20:47:33.258Z,65.90
2023-02-24T20:49:59.318Z,57.40
2023-02-24T20:52:25.177Z,57.80
2023-02-24T20:54:51.087Z,58.80
2023-02-24T20:57:16.998Z,64.30
2023-02-24T20:59:47.319Z,67.20
2023-02-24T21:02:17.770Z,59.30
2023-02-24T21:04:43.665Z,71.30
2023-02-24T21:07:09.653Z,65.00
2023-02-24T21:09:36.356Z,65.70
2023-02-24T21:12:03.898Z,62.90
2023-02-24T21:14:29.756Z,60.50
2023-02-24T21:16:55.696Z,58.80
2023-02-24T21:19:22.189Z,65.00
2023-02-24T21:21:48.096Z,61.10
2023-02-24T21:24:14.061Z,66.30
2023-02-24T21:26:39.954Z,62.90
2023-02-24T21:29:05.970Z,67.80
2023-02-24T21:31:32.159Z,67.60
2023-02-24T21:33:58.122Z,65.00
2023-02-24T21:36:25.113Z,67.40
2023-02-24T21:38:52.257Z,62.90
2023-02-24T21:41:21.072Z,61.60
2023-02-24T21:43:47.449Z,70.30
2023-02-24T21:46:15.298Z,65.70
2023-02-24T21:48:42.373Z,60.70
2023-02-24T21:51:11.340Z,66.40
2023-02-24T21:53:40.234Z,62.60
2023-02-24T21:56:10.238Z,64.50
2023-02-24T21:58:38.307Z,69.10
2023-02-24T22:01:13.091Z,70.40
2023-02-24T22:03:39.521Z,72.10
2023-02-24T22:06:06.011Z,64.80
2023-02-24T22:08:31.918Z,70.80
2023-02-24T22:10:59.453Z,62.50
2023-02-24T22:13:26.083Z,69.20
2023-02-24T22:15:52.261Z,60.70
2023-02-24T22:18:20.822Z,65.10
2023-02-24T22:20:47.075Z,63.70
2023-02-24T22:23:13.321Z,55.90
2023-02-24T22:25:39.340Z,66.30
2023-02-24T22:28:05.277Z,74.60
2023-02-24T22:30:31.283Z,67.60
2023-02-24T22:32:57.223Z,69.90
2023-02-24T22:35:23.173Z,67.20
2023-02-24T22:37:49.210Z,67.50
2023-02-24T22:40:15.525Z,65.50
2023-02-24T22:42:41.581Z,69.00
2023-02-24T22:45:08.171Z,70.40
2023-02-24T22:47:34.418Z,65.20
2023-02-24T22:50:00.564Z,70.00
2023-02-24T22:52:27.471Z,65.30
2023-02-24T22:54:53.503Z,67.50
2023-02-24T22:57:19.442Z,70.60
2023-02-24T22:59:45.533Z,65.40
2023-02-24T23:02:11.601Z,66.60
2023-02-24T23:04:38.184Z,65.80
2023-02-24T23:07:04.324Z,69.80
2023-02-24T23:09:30.562Z,63.80
2023-02-24T23:11:56.553Z,68.00
2023-02-24T23:14:22.535Z,66.50
2023-02-24T23:16:55.719Z,65.00
2023-02-24T23:19:22.711Z,59.70
2023-02-24T23:21:52.887Z,65.10
2023-02-24T23:24:21.631Z,60.90
2023-02-24T23:26:53.521Z,59.30
2023-02-24T23:29:22.211Z,69.60
2023-02-24T23:31:49.101Z,68.60
2023-02-24T23:34:15.474Z,69.30
2023-02-24T23:36:44.603Z,63.50
2023-02-24T23:39:13.511Z,67.00
2023-02-24T23:41:40.783Z,64.00
2023-02-24T23:46:34.177Z,47.40
2023-02-24T23:51:29.359Z,52.10
2023-02-24T23:53:59.788Z,54.20
2023-02-24T23:56:27.186Z,54.10
